Airfield :
LOGIN :

Register | Disclaimer

   EN    FR    IT 

 










Legend :    VFR   Marginal VFR   IFR   Intensive IFR   Very Intensive IFR
Visi :
Ceiling :
>= 8 km
>= 3000ft
5 to 8 km
1000 to 3000 ft
1500m to 5 km
500 to 1000 ft
800 to 1500m
200 to 500 ft
< 800m
< 200 ft
Symbols :   Thunderstorms  Fog  Heavy snow  Heavy precipitations  Wind > 20 kt
SIGMETs :     Misc.  Thunderstorms  Icing  Turbulence  Mountain Waves  Volcanic Ashes







- Airport Elevation : 46 ft
- IATA code : SNN


EINN - Shannon

CURRENT METAR :
  • 201500Z 10008KT 6000 -RADZ FEW002 SCT004 BKN007 17/17 Q1016 TEMPO 3000 BKN004

EXPIRED METARs :
  • 201430Z 10007KT 4500 -RADZ FEW003 BKN006 17/17 Q1016 NOSIG
  • 201400Z 12008KT 4500 -RADZ FEW002 BKN005 17/16 Q1017 NOSIG
  • 201330Z 12009KT 2800 RADZ FEW003 BKN005 17/16 Q1016 NOSIG
  • 201300Z 13009KT 3500 RADZ SCT005 BKN007 16/16 Q1016 TEMPO BKN005
  • 201230Z 13013KT 6000 RADZ SCT008 BKN010 16/15 Q1016 TEMPO 3000 BKN005

TAF TAF EINN
Valid from the 20 at 12:00 until the 21 at 12:00 UTC


201100Z 2012/2112 11013KT 7000 -RADZ BKN010
TEMPO 2012/2020 2000 RADZ BR BKN004
BECMG 2013/2015 17008KT
BECMG 2015/2018 24010KT
BECMG 2019/2021 3000 -RADZ BR BKN005
TEMPO 2020/2024 0300 FG RADZ BKN001
BECMG 2021/2024 19006KT
TEMPO 2100/2106 0300 FG BKN001
BECMG 2106/2108 9999 NSW BKN010
BECMG 2108/2110 BKN020
No reported NOTAMs for that airfield.



MET'MAP, your aeronautical weather chart ! - Copyright ORBIFLY December 2007 - Disclaimer

ORBIFLY MET'MAP TEAM :

Programming & Development : Alexandra Zaïnal
Concept & Development : Baudouin d'Aumeries
Co-Development & Prog : Marc-Olivier Méhu
Technical & hardware support : Manuel Goepfert

Contact : metmap@orbifly.com




SOURCES & CREDITS :

   NOAA